Time;durP1;ratioP1;P1;durP2;ratioP2;P2;SDS_P1;SDS_P2;PMS_P1;PMS_P2;Temp;Humidity;BMP_temperature;BMP_pressure;BME280_temperature;BME280_humidity;BME280_pressure;Samples;Min_cycle;Max_cycle;Signal;HPM_P1;HPM_P2
2023/08/08 00:00:18;;;;;;;4.45;3.50;;;21.10;72.20;;;;;;5015515;28;20437;-78
2023/08/08 00:02:44;;;;;;;3.88;3.22;;;21.10;72.30;;;;;;5013244;28;20033;-79
2023/08/08 00:05:09;;;;;;;3.72;3.22;;;21.10;72.50;;;;;;5013336;28;20436;-78
2023/08/08 00:07:35;;;;;;;4.32;3.30;;;21.00;72.60;;;;;;5030076;28;20022;-78
2023/08/08 00:10:01;;;;;;;3.28;2.97;;;21.00;72.60;;;;;;5029988;28;20034;-78
2023/08/08 00:12:26;;;;;;;3.30;3.00;;;21.00;72.90;;;;;;5015441;28;20454;-79
2023/08/08 00:14:52;;;;;;;5.00;3.13;;;20.90;72.70;;;;;;5029690;28;20419;-80
2023/08/08 00:17:17;;;;;;;3.38;3.08;;;20.90;72.90;;;;;;5014635;28;20030;-79
2023/08/08 00:19:43;;;;;;;3.10;2.83;;;20.90;72.90;;;;;;5013293;28;20066;-79
2023/08/08 00:22:09;;;;;;;3.75;2.80;;;20.80;73.00;;;;;;5029793;28;20063;-78
2023/08/08 00:24:34;;;;;;;3.45;2.90;;;20.80;73.00;;;;;;5013073;28;20034;-78
2023/08/08 00:27:00;;;;;;;3.65;2.70;;;20.80;73.10;;;;;;5030040;28;20026;-78
2023/08/08 00:29:26;;;;;;;3.22;2.90;;;20.80;73.20;;;;;;5030204;28;20022;-78
2023/08/08 00:31:51;;;;;;;4.35;3.03;;;20.70;73.20;;;;;;5029563;28;20054;-79
2023/08/08 00:34:17;;;;;;;3.28;2.97;;;20.70;73.40;;;;;;5014074;28;20041;-79
2023/08/08 00:36:42;;;;;;;3.88;3.25;;;20.70;73.40;;;;;;5029397;28;20044;-83
2023/08/08 00:39:08;;;;;;;3.97;3.20;;;20.70;73.60;;;;;;5012691;28;20409;-83
2023/08/08 00:41:34;;;;;;;4.93;3.03;;;20.60;73.50;;;;;;5027847;28;20030;-82
2023/08/08 00:43:59;;;;;;;3.97;3.10;;;20.60;73.50;;;;;;5011122;28;20077;-84
2023/08/08 00:46:25;;;;;;;3.67;3.03;;;20.70;73.70;;;;;;5027683;28;20490;-83
2023/08/08 00:48:52;;;;;;;4.55;3.10;;;20.60;73.60;;;;;;5012450;28;20366;-84
2023/08/08 00:51:19;;;;;;;3.58;3.22;;;20.60;73.70;;;;;;5027514;28;20040;-83
2023/08/08 00:53:46;;;;;;;3.15;2.85;;;20.60;73.90;;;;;;5027541;28;20026;-82
2023/08/08 00:56:13;;;;;;;3.55;2.80;;;20.60;73.90;;;;;;5027415;28;20032;-84
2023/08/08 00:58:40;;;;;;;3.13;2.80;;;20.60;74.00;;;;;;5027429;28;20452;-83
2023/08/08 01:01:06;;;;;;;3.38;2.63;;;20.50;73.90;;;;;;5012363;28;20457;-84
2023/08/08 01:03:31;;;;;;;4.05;2.78;;;20.50;73.90;;;;;;5011088;28;20026;-84
2023/08/08 01:06:08;;;;;;;3.58;2.97;;;20.50;74.00;;;;;;5027397;28;20509;-83
2023/08/08 01:08:45;;;;;;;3.70;2.85;;;20.50;74.00;;;;;;5012401;28;20040;-83
2023/08/08 01:11:13;;;;;;;3.83;2.97;;;20.50;74.10;;;;;;5012337;28;20081;-83
2023/08/08 01:13:40;;;;;;;3.38;2.90;;;20.40;74.20;;;;;;5012411;28;20014;-84
2023/08/08 01:16:06;;;;;;;3.58;3.22;;;20.40;74.40;;;;;;5012205;28;20516;-83
2023/08/08 01:18:33;;;;;;;4.10;2.75;;;20.40;74.60;;;;;;5011707;28;20018;-84
2023/08/08 01:21:00;;;;;;;3.72;3.40;;;20.40;74.50;;;;;;5027021;28;20528;-84
2023/08/08 01:23:52;;;;;;;3.80;2.95;;;20.40;74.70;;;;;;5010909;28;20113;-82
2023/08/08 01:26:20;;;;;;;3.33;3.03;;;20.40;74.70;;;;;;5012072;28;20029;-84
2023/08/08 01:28:46;;;;;;;3.05;2.83;;;20.40;75.00;;;;;;5012299;28;20552;-83
2023/08/08 01:31:11;;;;;;;3.53;2.83;;;20.40;75.60;;;;;;5012305;28;20076;-84
2023/08/08 01:33:37;;;;;;;3.97;2.72;;;20.40;75.00;;;;;;5027506;28;20509;-83
2023/08/08 01:36:13;;;;;;;3.53;2.80;;;20.40;75.00;;;;;;5012060;28;20033;-84
2023/08/08 01:38:43;;;;;;;3.72;3.28;;;20.40;75.00;;;;;;5027068;28;20496;-83
2023/08/08 01:41:09;;;;;;;2.95;2.47;;;20.40;74.80;;;;;;5014461;28;20501;-84
2023/08/08 01:43:37;;;;;;;3.55;3.10;;;20.40;74.70;;;;;;5030759;28;20029;-84
2023/08/08 01:46:04;;;;;;;3.20;2.88;;;20.40;74.60;;;;;;5015983;28;20022;-84
2023/08/08 01:48:30;;;;;;;3.15;2.85;;;20.30;74.60;;;;;;5030968;28;20022;-83
2023/08/08 01:50:55;;;;;;;3.58;2.75;;;20.30;74.40;;;;;;5015578;28;20022;-83
2023/08/08 01:53:21;;;;;;;3.10;2.65;;;20.30;74.40;;;;;;5030706;28;20022;-83
2023/08/08 01:55:47;;;;;;;3.40;2.60;;;20.30;74.40;;;;;;5030800;28;20473;-84
2023/08/08 01:58:12;;;;;;;2.90;2.60;;;20.30;74.30;;;;;;5014330;28;20081;-84
2023/08/08 02:00:40;;;;;;;4.07;2.72;;;20.20;74.30;;;;;;5014198;28;20429;-83
2023/08/08 02:03:06;;;;;;;2.90;2.70;;;20.20;74.30;;;;;;5014023;28;20026;-83
2023/08/08 02:05:32;;;;;;;3.42;2.70;;;20.20;74.20;;;;;;5030518;28;20037;-84
2023/08/08 02:07:58;;;;;;;3.10;2.80;;;20.20;74.40;;;;;;5015730;28;20080;-83
2023/08/08 02:10:24;;;;;;;2.70;2.50;;;20.20;74.50;;;;;;5014991;28;20091;-83
2023/08/08 02:12:49;;;;;;;3.22;2.60;;;20.20;74.40;;;;;;5015157;28;20038;-84
2023/08/08 02:15:15;;;;;;;3.97;2.47;;;20.20;74.40;;;;;;5014014;28;20030;-83
2023/08/08 02:17:41;;;;;;;3.53;2.83;;;20.20;74.40;;;;;;5030337;28;20579;-84
2023/08/08 02:20:07;;;;;;;4.07;3.13;;;20.20;74.40;;;;;;5030304;28;20030;-84
2023/08/08 02:22:33;;;;;;;4.43;2.72;;;20.20;74.30;;;;;;5014860;28;20054;-83
2023/08/08 02:24:59;;;;;;;2.90;2.60;;;20.20;74.30;;;;;;5030578;28;20026;-83
2023/08/08 02:27:24;;;;;;;3.92;2.65;;;20.20;74.90;;;;;;5030002;28;20022;-83
2023/08/08 02:29:50;;;;;;;4.32;3.35;;;20.20;74.30;;;;;;5030131;28;20036;-83
2023/08/08 02:32:15;;;;;;;3.45;2.85;;;20.20;74.40;;;;;;5014896;28;20072;-84
2023/08/08 02:34:42;;;;;;;3.20;2.90;;;20.20;74.40;;;;;;5013750;28;20121;-83
2023/08/08 02:37:08;;;;;;;3.10;2.80;;;20.20;74.40;;;;;;5014715;28;20053;-83
2023/08/08 02:39:33;;;;;;;3.15;2.70;;;20.20;74.50;;;;;;5013311;28;20448;-83
2023/08/08 02:41:59;;;;;;;4.25;3.40;;;20.20;74.60;;;;;;5029993;28;20121;-84
2023/08/08 02:44:24;;;;;;;3.40;2.95;;;20.20;74.40;;;;;;5013409;28;20093;-83
2023/08/08 02:46:50;;;;;;;3.10;2.78;;;20.20;74.60;;;;;;5014464;28;20494;-84
2023/08/08 02:49:16;;;;;;;3.17;2.88;;;20.20;74.60;;;;;;5029965;28;20433;-84
2023/08/08 02:51:41;;;;;;;3.72;3.10;;;20.20;74.60;;;;;;5028781;28;20125;-84
2023/08/08 02:54:07;;;;;;;3.20;2.90;;;20.20;74.70;;;;;;5014483;28;20063;-83
2023/08/08 02:56:32;;;;;;;3.85;2.88;;;20.30;74.70;;;;;;5013143;28;20394;-83
2023/08/08 02:58:58;;;;;;;3.40;2.78;;;20.30;74.80;;;;;;5029372;28;20030;-83
2023/08/08 03:01:24;;;;;;;4.60;3.22;;;20.30;74.70;;;;;;5014774;28;20088;-83
2023/08/08 03:03:50;;;;;;;5.38;3.25;;;20.30;74.60;;;;;;5014200;28;20045;-83
2023/08/08 03:06:15;;;;;;;3.05;2.75;;;20.30;74.70;;;;;;5012903;28;20457;-83
2023/08/08 03:08:41;;;;;;;4.35;3.00;;;20.40;74.70;;;;;;5014489;28;20137;-84
2023/08/08 03:11:07;;;;;;;3.20;2.90;;;20.30;74.70;;;;;;5013996;28;20036;-83
2023/08/08 03:13:32;;;;;;;3.72;3.00;;;20.40;74.80;;;;;;5029212;28;20029;-83
2023/08/08 03:15:58;;;;;;;3.13;2.83;;;20.40;74.80;;;;;;5013964;28;20022;-84
2023/08/08 03:18:25;;;;;;;4.40;3.05;;;20.40;74.80;;;;;;5012877;28;20488;-84
2023/08/08 03:20:51;;;;;;;3.47;3.05;;;20.50;74.90;;;;;;5011392;28;20034;-83
2023/08/08 03:23:17;;;;;;;3.45;3.00;;;20.50;74.80;;;;;;5026966;28;20102;-83
2023/08/08 03:25:43;;;;;;;3.80;2.70;;;20.60;74.60;;;;;;5010760;28;20173;-84
2023/08/08 03:28:08;;;;;;;2.80;2.60;;;20.70;74.50;;;;;;5026771;28;20033;-83
2023/08/08 03:30:37;;;;;;;5.68;3.17;;;20.80;74.40;;;;;;5027036;28;20025;-83
2023/08/08 03:33:03;;;;;;;4.03;3.13;;;20.90;74.10;;;;;;5025930;28;20026;-84
2023/08/08 03:35:29;;;;;;;3.45;2.97;;;21.00;73.70;;;;;;5028040;28;20091;-83
2023/08/08 03:37:54;;;;;;;3.08;2.60;;;21.20;73.50;;;;;;5028685;28;20034;-84
2023/08/08 03:40:20;;;;;;;4.53;3.00;;;21.30;73.50;;;;;;5012833;28;20045;-83
2023/08/08 03:42:46;;;;;;;3.65;2.92;;;21.40;73.10;;;;;;5028189;28;20045;-84
2023/08/08 03:45:11;;;;;;;3.88;2.95;;;21.50;72.90;;;;;;5011310;28;20474;-84
2023/08/08 03:47:37;;;;;;;3.10;2.47;;;21.70;72.60;;;;;;5013316;28;20029;-85
2023/08/08 03:50:04;;;;;;;3.38;3.08;;;21.80;72.30;;;;;;5012747;28;20072;-84
2023/08/08 03:52:30;;;;;;;3.30;2.70;;;21.90;72.00;;;;;;5028834;28;20022;-83
2023/08/08 03:54:55;;;;;;;3.00;2.70;;;22.00;71.70;;;;;;5012864;28;20363;-84
2023/08/08 03:57:21;;;;;;;3.28;2.60;;;22.10;71.50;;;;;;5028424;28;20034;-83
2023/08/08 03:59:47;;;;;;;3.42;3.03;;;22.30;71.70;;;;;;5027976;28;20026;-84
2023/08/08 04:02:13;;;;;;;3.22;2.78;;;22.50;71.80;;;;;;5011037;28;20083;-83
2023/08/08 04:04:39;;;;;;;2.95;2.65;;;22.80;71.50;;;;;;5011115;28;20485;-83
2023/08/08 04:07:04;;;;;;;2.90;2.60;;;23.10;70.80;;;;;;5012779;28;20024;-84
2023/08/08 04:09:31;;;;;;;3.38;2.67;;;23.60;70.20;;;;;;5012643;28;20115;-84
2023/08/08 04:11:56;;;;;;;3.08;2.42;;;24.30;68.80;;;;;;5028022;28;20030;-84
2023/08/08 04:14:22;;;;;;;5.32;2.75;;;25.10;67.30;;;;;;5012507;28;20532;-83
2023/08/08 04:16:48;;;;;;;3.28;2.60;;;26.00;65.40;;;;;;5012761;28;20389;-85
2023/08/08 04:19:13;;;;;;;2.78;2.15;;;27.00;63.30;;;;;;5012865;28;20032;-85
2023/08/08 04:21:39;;;;;;;2.70;2.47;;;27.80;60.90;;;;;;5010895;28;20144;-85
2023/08/08 04:24:07;;;;;;;2.78;2.47;;;28.50;59.20;;;;;;5012854;28;20061;-84
2023/08/08 04:26:33;;;;;;;4.15;2.20;;;29.00;58.00;;;;;;5012434;28;20034;-83
2023/08/08 04:28:59;;;;;;;4.38;2.63;;;29.30;56.90;;;;;;5012050;28;20018;-85
2023/08/08 04:31:25;;;;;;;2.95;2.30;;;29.20;55.80;;;;;;5012387;28;20036;-85
2023/08/08 04:33:52;;;;;;;4.60;2.08;;;28.90;55.30;;;;;;5012163;28;20478;-84
2023/08/08 04:36:17;;;;;;;3.53;2.60;;;28.50;55.40;;;;;;5010931;28;20030;-83
2023/08/08 04:38:43;;;;;;;2.15;1.95;;;28.10;55.70;;;;;;5011657;28;20095;-84
2023/08/08 04:41:09;;;;;;;2.33;2.13;;;27.70;56.30;;;;;;5026818;28;20076;-85
2023/08/08 04:43:34;;;;;;;3.05;2.05;;;27.50;56.50;;;;;;5011582;28;20104;-84
2023/08/08 04:46:00;;;;;;;2.17;1.98;;;27.30;56.80;;;;;;5012028;28;20091;-85
2023/08/08 04:48:26;;;;;;;2.20;2.00;;;27.20;57.20;;;;;;5027213;28;20030;-84
2023/08/08 04:50:51;;;;;;;1.95;1.83;;;27.40;57.30;;;;;;5010888;28;20033;-84
2023/08/08 04:53:17;;;;;;;2.03;1.83;;;28.00;56.70;;;;;;5025374;28;20084;-84
2023/08/08 04:55:43;;;;;;;2.17;1.77;;;28.50;55.60;;;;;;5010547;28;20050;-84
2023/08/08 04:58:08;;;;;;;1.70;1.60;;;28.80;54.60;;;;;;5009805;28;20029;-84
2023/08/08 05:00:35;;;;;;;3.00;1.95;;;28.80;54.30;;;;;;5010022;28;20106;-85
2023/08/08 05:03:01;;;;;;;2.33;2.13;;;28.60;54.60;;;;;;5009977;28;20061;-85
2023/08/08 05:05:27;;;;;;;3.50;1.88;;;28.50;54.70;;;;;;5025892;28;20109;-85
2023/08/08 05:07:52;;;;;;;2.22;1.92;;;28.70;55.30;;;;;;5010214;28;20064;-85
2023/08/08 05:10:18;;;;;;;1.88;1.77;;;29.10;54.80;;;;;;5011870;28;20061;-84
2023/08/08 05:12:44;;;;;;;2.20;2.00;;;29.40;53.90;;;;;;5010348;28;20022;-85
2023/08/08 05:15:09;;;;;;;3.33;2.08;;;29.40;53.40;;;;;;5012820;28;20037;-85
2023/08/08 05:17:35;;;;;;;3.28;2.17;;;29.40;53.10;;;;;;5030373;28;20108;-85
2023/08/08 05:20:01;;;;;;;2.42;1.92;;;29.20;53.20;;;;;;5029966;28;20036;-84
2023/08/08 05:22:26;;;;;;;2.05;1.83;;;28.90;53.40;;;;;;5013971;28;20052;-85
2023/08/08 05:24:52;;;;;;;2.88;1.85;;;28.60;53.70;;;;;;5015800;28;20099;-84
2023/08/08 05:27:18;;;;;;;2.10;2.00;;;28.30;53.90;;;;;;5030938;28;20033;-85
2023/08/08 05:29:43;;;;;;;2.55;1.98;;;28.00;54.50;;;;;;5014075;28;20390;-85
2023/08/08 05:32:09;;;;;;;2.30;2.10;;;27.70;54.90;;;;;;5014564;28;20037;-85
2023/08/08 05:34:35;;;;;;;2.58;2.00;;;27.60;55.40;;;;;;5014077;28;20025;-85
2023/08/08 05:37:00;;;;;;;3.08;2.20;;;27.70;55.30;;;;;;5015378;28;20115;-84
2023/08/08 05:39:26;;;;;;;4.38;2.20;;;27.90;55.00;;;;;;5028942;28;20030;-85
2023/08/08 05:41:52;;;;;;;4.28;2.58;;;27.90;55.00;;;;;;5029427;28;20022;-84
2023/08/08 05:44:18;;;;;;;2.35;2.10;;;27.90;55.00;;;;;;5014352;28;20018;-84
2023/08/08 05:46:44;;;;;;;2.22;2.03;;;27.70;55.10;;;;;;5029252;28;20381;-84
2023/08/08 05:49:09;;;;;;;3.00;2.33;;;27.60;55.40;;;;;;5012656;28;20030;-84
2023/08/08 05:51:35;;;;;;;3.92;2.67;;;27.40;55.70;;;;;;5014064;28;20098;-84
2023/08/08 05:54:01;;;;;;;4.57;2.28;;;27.30;55.80;;;;;;5014979;28;20589;-85
2023/08/08 05:56:35;;;;;;;3.00;2.50;;;27.10;56.10;;;;;;5013522;28;20474;-85
2023/08/08 05:59:01;;;;;;;2.25;2.05;;;27.00;56.50;;;;;;5027990;28;20026;-85
2023/08/08 06:01:27;;;;;;;2.30;2.10;;;26.90;56.80;;;;;;5014222;28;20122;-84
2023/08/08 06:03:52;;;;;;;2.60;2.40;;;26.80;56.80;;;;;;5029185;28;20030;-85
2023/08/08 06:06:18;;;;;;;2.40;2.17;;;26.80;57.30;;;;;;5013864;28;20028;-85
2023/08/08 06:08:44;;;;;;;2.63;2.42;;;26.70;57.60;;;;;;5013629;28;20037;-84
2023/08/08 06:11:10;;;;;;;2.47;2.22;;;26.70;57.60;;;;;;5013672;28;20117;-85
2023/08/08 06:13:36;;;;;;;3.58;2.05;;;26.60;57.50;;;;;;5029836;28;20054;-84
2023/08/08 06:16:06;;;;;;;2.33;2.13;;;26.50;57.60;;;;;;5030099;28;20022;-85
2023/08/08 06:18:35;;;;;;;2.70;2.50;;;26.50;57.80;;;;;;5010602;28;20478;-85
2023/08/08 06:21:01;;;;;;;2.55;2.28;;;26.50;57.90;;;;;;5025969;28;20128;-85
2023/08/08 06:23:27;;;;;;;2.50;2.30;;;26.40;58.00;;;;;;5010610;28;20468;-80
2023/08/08 06:25:52;;;;;;;2.75;2.53;;;26.40;58.30;;;;;;5010898;28;20117;-80
2023/08/08 06:28:18;;;;;;;2.60;2.40;;;26.30;58.80;;;;;;5012923;28;20025;-79
2023/08/08 06:30:44;;;;;;;2.88;2.45;;;26.30;59.10;;;;;;5029630;28;20030;-81
2023/08/08 06:33:09;;;;;;;2.92;2.28;;;26.20;59.00;;;;;;5029621;28;20088;-79
2023/08/08 06:35:35;;;;;;;2.88;2.53;;;26.20;59.30;;;;;;5014919;28;20470;-79
2023/08/08 06:38:01;;;;;;;3.13;2.58;;;26.10;59.20;;;;;;5028539;28;21915;-79
2023/08/08 06:40:27;;;;;;;2.95;2.40;;;26.10;59.50;;;;;;5027886;28;20042;-79
2023/08/08 06:42:53;;;;;;;2.75;2.45;;;26.10;59.80;;;;;;5023848;28;20514;-79
2023/08/08 06:45:19;;;;;;;2.67;2.40;;;26.00;60.30;;;;;;5010468;28;20041;-79
2023/08/08 06:47:45;;;;;;;3.00;2.70;;;26.00;60.60;;;;;;5008822;28;20466;-79
2023/08/08 06:50:11;;;;;;;4.68;2.80;;;26.00;60.70;;;;;;5024644;28;20030;-79
2023/08/08 06:52:37;;;;;;;2.80;2.45;;;26.00;60.50;;;;;;5003169;28;20034;-80
2023/08/08 06:55:03;;;;;;;3.22;2.60;;;25.90;61.30;;;;;;5010091;28;20026;-79
2023/08/08 06:57:32;;;;;;;4.13;2.90;;;25.90;61.10;;;;;;5010527;28;20022;-79
2023/08/08 06:59:58;;;;;;;3.25;2.70;;;25.80;61.00;;;;;;5010402;28;20140;-80
2023/08/08 07:02:23;;;;;;;2.65;2.45;;;25.80;60.70;;;;;;5008915;28;20109;-79
2023/08/08 07:04:49;;;;;;;3.75;2.53;;;25.80;60.60;;;;;;5023007;28;20026;-79
2023/08/08 07:07:15;;;;;;;3.75;2.88;;;25.80;60.90;;;;;;5023966;28;20084;-80
2023/08/08 07:09:41;;;;;;;3.53;2.50;;;25.80;61.30;;;;;;5010558;28;20030;-79
2023/08/08 07:12:07;;;;;;;3.08;2.70;;;25.80;61.30;;;;;;5012559;28;20567;-79
2023/08/08 07:14:33;;;;;;;4.68;2.90;;;25.70;61.20;;;;;;5022129;28;20040;-79
2023/08/08 07:16:59;;;;;;;4.22;2.83;;;25.70;61.40;;;;;;5026579;28;20056;-80
2023/08/08 07:19:25;;;;;;;5.15;3.50;;;25.60;61.90;;;;;;5011543;28;20442;-79
2023/08/08 07:21:50;;;;;;;32.67;5.90;;;25.60;61.90;;;;;;5021498;28;20065;-81
2023/08/08 07:24:17;;;;;;;10.90;4.25;;;25.60;62.30;;;;;;5028894;28;20068;-79
2023/08/08 07:26:42;;;;;;;14.38;4.57;;;25.60;62.60;;;;;;5027763;28;20434;-79
2023/08/08 07:29:08;;;;;;;18.65;5.10;;;25.60;62.80;;;;;;5011489;28;20100;-79
2023/08/08 07:31:34;;;;;;;3.55;2.55;;;25.60;62.80;;;;;;5028225;28;20076;-80
2023/08/08 07:33:59;;;;;;;2.92;2.63;;;25.60;62.20;;;;;;5008025;28;20045;-78
2023/08/08 07:36:25;;;;;;;4.05;2.85;;;25.60;62.60;;;;;;5029640;28;20038;-80
2023/08/08 07:38:51;;;;;;;3.78;2.63;;;25.60;62.70;;;;;;5013684;28;20568;-81
2023/08/08 07:41:18;;;;;;;3.78;2.60;;;25.60;62.40;;;;;;5027848;28;20034;-85
2023/08/08 07:43:44;;;;;;;3.38;2.60;;;25.60;62.40;;;;;;5019669;28;20032;-84
2023/08/08 07:46:10;;;;;;;4.40;3.08;;;25.60;62.40;;;;;;5025596;28;20032;-80
2023/08/08 07:48:35;;;;;;;3.05;2.75;;;25.60;62.30;;;;;;5009828;28;20026;-78
2023/08/08 07:51:01;;;;;;;3.72;2.83;;;25.60;62.40;;;;;;5006657;28;20032;-78
2023/08/08 07:53:27;;;;;;;4.75;2.92;;;25.60;62.50;;;;;;5023542;28;20072;-77
2023/08/08 07:55:53;;;;;;;6.55;2.97;;;25.60;62.30;;;;;;5010946;28;20137;-77
2023/08/08 07:58:19;;;;;;;4.05;2.60;;;25.60;62.50;;;;;;5025933;28;20482;-76
2023/08/08 08:00:44;;;;;;;7.32;3.42;;;25.60;61.80;;;;;;5019314;28;20050;-85
2023/08/08 08:03:10;;;;;;;6.70;2.92;;;25.50;61.50;;;;;;5028193;28;20037;-84
2023/08/08 08:05:37;;;;;;;3.67;2.53;;;25.50;61.20;;;;;;5042522;28;20515;-84
2023/08/08 08:08:03;;;;;;;2.50;2.30;;;25.50;60.50;;;;;;5038521;28;20046;-83
2023/08/08 08:10:29;;;;;;;3.30;2.30;;;25.50;60.20;;;;;;5029847;28;20038;-83
2023/08/08 08:12:57;;;;;;;2.22;2.08;;;25.50;60.00;;;;;;5008355;28;20042;-85
2023/08/08 08:15:28;;;;;;;3.80;2.20;;;25.50;60.20;;;;;;5024971;28;20041;-83
2023/08/08 08:17:54;;;;;;;2.85;2.45;;;25.50;59.60;;;;;;5005373;28;20035;-83
2023/08/08 08:20:20;;;;;;;4.45;2.60;;;25.40;59.60;;;;;;5023507;28;20036;-84
2023/08/08 08:22:45;;;;;;;3.65;2.47;;;25.40;59.50;;;;;;5020124;28;20464;-84
2023/08/08 08:25:11;;;;;;;2.70;2.47;;;25.40;59.00;;;;;;5024948;28;20036;-83
2023/08/08 08:27:37;;;;;;;2.30;2.10;;;25.40;58.80;;;;;;5005924;28;20101;-85
2023/08/08 08:30:05;;;;;;;3.08;2.10;;;25.40;58.40;;;;;;5010350;28;20099;-82
2023/08/08 08:32:34;;;;;;;4.32;2.08;;;25.40;58.00;;;;;;5011854;28;20038;-83
2023/08/08 08:35:03;;;;;;;2.10;1.90;;;25.40;58.30;;;;;;5015765;28;20029;-83
2023/08/08 08:37:30;;;;;;;2.03;1.88;;;25.30;57.80;;;;;;5007466;28;20026;-85
2023/08/08 08:39:56;;;;;;;3.03;2.28;;;25.30;57.40;;;;;;5013317;28;20406;-84
2023/08/08 08:42:22;;;;;;;3.03;2.10;;;25.30;57.40;;;;;;5021112;28;20026;-84
2023/08/08 08:44:52;;;;;;;4.15;2.47;;;25.30;58.10;;;;;;5018060;28;20022;-85
2023/08/08 08:47:20;;;;;;;2.65;2.35;;;25.30;58.50;;;;;;5013403;28;20080;-83
2023/08/08 08:49:46;;;;;;;2.75;2.42;;;25.30;58.50;;;;;;5010056;28;20034;-84
2023/08/08 08:52:12;;;;;;;2.60;2.25;;;25.30;58.50;;;;;;5011127;28;23229;-83
2023/08/08 08:54:38;;;;;;;2.47;2.22;;;25.30;58.70;;;;;;5013811;28;20032;-84
2023/08/08 08:57:04;;;;;;;2.58;2.35;;;25.30;58.80;;;;;;5032959;28;20038;-84
2023/08/08 08:59:30;;;;;;;2.10;1.98;;;25.30;58.60;;;;;;5032714;28;20045;-84
2023/08/08 09:01:57;;;;;;;2.50;2.30;;;25.30;58.40;;;;;;5028235;28;20057;-81
2023/08/08 09:04:23;;;;;;;3.45;2.22;;;25.30;58.10;;;;;;5027060;28;20029;-81
2023/08/08 09:06:53;;;;;;;2.40;2.20;;;25.30;58.10;;;;;;5031337;28;20108;-84
2023/08/08 09:09:21;;;;;;;2.28;2.08;;;25.40;58.00;;;;;;5014518;28;20102;-83
2023/08/08 09:11:49;;;;;;;2.22;2.03;;;25.50;58.20;;;;;;5023523;28;20108;-79
2023/08/08 09:14:18;;;;;;;2.88;2.20;;;25.50;58.20;;;;;;5022616;28;20029;-79
2023/08/08 09:16:45;;;;;;;2.63;2.42;;;25.60;58.30;;;;;;5005903;28;20045;-79
2023/08/08 09:19:12;;;;;;;2.60;2.15;;;25.60;58.10;;;;;;5023359;28;20042;-78
2023/08/08 09:21:37;;;;;;;2.60;2.40;;;25.70;58.10;;;;;;5003699;28;20045;-79
2023/08/08 09:24:03;;;;;;;3.08;2.20;;;25.80;57.90;;;;;;5006996;28;20030;-79
2023/08/08 09:26:29;;;;;;;2.00;1.80;;;25.90;57.50;;;;;;5006305;28;20030;-79
2023/08/08 09:28:55;;;;;;;3.50;2.20;;;25.90;57.40;;;;;;5003635;28;20390;-80
2023/08/08 09:31:21;;;;;;;2.45;2.20;;;26.00;57.30;;;;;;5008883;28;20124;-82
2023/08/08 09:33:48;;;;;;;2.42;2.22;;;26.00;57.20;;;;;;5015752;28;20026;-83
2023/08/08 09:36:19;;;;;;;2.45;2.22;;;26.00;57.10;;;;;;5020254;28;20033;-83
2023/08/08 09:38:45;;;;;;;;;;;26.10;57.30;;;;;;5037929;28;20040;-84
2023/08/08 09:41:11;;;;;;;3.38;2.10;;;26.00;57.60;;;;;;5018386;28;19921;-84
2023/08/08 09:43:37;;;;;;;2.30;2.00;;;26.00;57.50;;;;;;5017674;28;20030;-83
2023/08/08 09:46:03;;;;;;;2.42;2.22;;;26.00;57.60;;;;;;5031301;28;20125;-83
2023/08/08 09:48:32;;;;;;;2.47;2.08;;;26.00;57.60;;;;;;5031471;28;20401;-83
2023/08/08 09:51:01;;;;;;;2.88;2.08;;;26.00;58.20;;;;;;5012733;28;20029;-82
2023/08/08 09:53:31;;;;;;;3.08;2.08;;;26.00;57.60;;;;;;5008144;28;20036;-84
2023/08/08 09:55:57;;;;;;;2.00;1.90;;;26.00;57.80;;;;;;5010340;28;20119;-83
2023/08/08 09:58:23;;;;;;;4.80;2.50;;;25.90;57.70;;;;;;5007834;28;20030;-83
2023/08/08 10:00:52;;;;;;;2.53;2.33;;;25.90;57.80;;;;;;5027116;28;21750;-80
2023/08/08 10:03:19;;;;;;;3.22;2.42;;;26.00;57.70;;;;;;5009106;28;20117;-80
2023/08/08 10:05:45;;;;;;;2.53;2.33;;;26.00;57.60;;;;;;5007938;28;20041;-80
2023/08/08 10:08:15;;;;;;;4.28;2.80;;;26.00;57.50;;;;;;5004092;28;20022;-79
2023/08/08 10:10:42;;;;;;;2.47;2.22;;;26.00;57.60;;;;;;5003550;28;20057;-80
2023/08/08 10:13:08;;;;;;;2.60;2.38;;;26.00;57.70;;;;;;5016365;28;20406;-80
2023/08/08 10:15:38;;;;;;;3.08;2.55;;;26.10;58.00;;;;;;5002906;28;20040;-81
2023/08/08 10:18:04;;;;;;;2.63;2.42;;;26.10;57.60;;;;;;5023025;28;20034;-80
2023/08/08 10:20:33;;;;;;;2.42;2.20;;;26.10;57.50;;;;;;5004343;28;20052;-80
2023/08/08 10:23:02;;;;;;;2.45;2.25;;;26.00;57.60;;;;;;5019576;28;20046;-79
2023/08/08 10:25:30;;;;;;;2.58;2.38;;;26.00;57.50;;;;;;5006032;28;20053;-79
2023/08/08 10:28:23;;;;;;;2.53;2.33;;;26.00;57.60;;;;;;5006036;28;20026;-79
2023/08/08 10:30:57;;;;;;;3.40;2.35;;;25.90;57.70;;;;;;5005051;28;20510;-79
2023/08/08 10:33:41;;;;;;;2.25;2.05;;;25.90;57.60;;;;;;5003076;28;20022;-80
2023/08/08 10:36:07;;;;;;;2.38;2.17;;;25.90;57.60;;;;;;5003272;28;20069;-80
2023/08/08 10:38:40;;;;;;;2.72;2.33;;;25.80;57.70;;;;;;5003408;28;20113;-79
2023/08/08 10:41:16;;;;;;;2.30;2.10;;;25.80;57.50;;;;;;5018669;28;20038;-79
2023/08/08 10:43:54;;;;;;;2.33;2.13;;;25.70;58.10;;;;;;5023770;28;20030;-79
2023/08/08 10:46:31;;;;;;;2.25;2.10;;;25.70;57.60;;;;;;4998697;28;20030;-80
2023/08/08 10:49:02;;;;;;;2.42;2.15;;;25.60;57.70;;;;;;4993876;28;20811;-79
2023/08/08 10:52:02;;;;;;;2.60;2.40;;;25.60;58.10;;;;;;5021505;28;20030;-79
2023/08/08 10:54:30;;;;;;;2.60;2.27;;;25.40;58.00;;;;;;4997385;28;20046;-79
2023/08/08 10:56:58;;;;;;;2.70;2.40;;;25.40;58.40;;;;;;5002779;28;20551;-79
2023/08/08 10:59:36;;;;;;;2.97;2.70;;;25.30;58.70;;;;;;5002061;28;20484;-78
2023/08/08 11:02:02;;;;;;;2.83;2.63;;;25.30;59.20;;;;;;5008200;28;20428;-78
2023/08/08 11:04:30;;;;;;;2.58;2.38;;;25.20;59.50;;;;;;5018898;28;20041;-78
2023/08/08 11:06:56;;;;;;;3.28;2.97;;;25.20;59.80;;;;;;5006798;28;20030;-78
2023/08/08 11:09:23;;;;;;;3.35;2.65;;;25.20;60.10;;;;;;5004200;28;20034;-77
2023/08/08 11:11:49;;;;;;;3.15;2.75;;;25.20;60.70;;;;;;5007353;28;20033;-78
2023/08/08 11:14:20;;;;;;;3.03;2.58;;;25.20;61.00;;;;;;5005416;28;20140;-79
2023/08/08 11:16:47;;;;;;;2.95;2.72;;;25.20;60.90;;;;;;5006269;28;20030;-78
2023/08/08 11:19:15;;;;;;;3.30;3.00;;;25.20;60.80;;;;;;5019249;28;20037;-77
2023/08/08 11:21:43;;;;;;;3.90;2.80;;;25.20;60.80;;;;;;5002471;28;20108;-78
2023/08/08 11:24:10;;;;;;;5.40;3.00;;;25.20;60.70;;;;;;5004473;28;20040;-78
2023/08/08 11:26:36;;;;;;;5.57;3.20;;;25.20;60.90;;;;;;5003459;28;20026;-78
2023/08/08 11:29:05;;;;;;;3.60;2.85;;;25.20;61.50;;;;;;5012263;28;20539;-78
2023/08/08 11:31:31;;;;;;;3.03;2.70;;;25.10;62.10;;;;;;5002645;28;20026;-79
2023/08/08 11:33:59;;;;;;;3.38;2.78;;;25.10;61.50;;;;;;5019093;28;20034;-79
2023/08/08 11:36:26;;;;;;;5.03;3.75;;;25.10;61.70;;;;;;5005025;28;20497;-78
2023/08/08 11:38:52;;;;;;;5.43;3.90;;;25.00;61.90;;;;;;5020395;28;20022;-78
2023/08/08 11:41:23;;;;;;;6.07;4.70;;;25.00;61.60;;;;;;5007112;28;20096;-80
2023/08/08 11:43:50;;;;;;;6.97;3.08;;;25.00;61.60;;;;;;5029740;28;20104;-80
2023/08/08 11:46:16;;;;;;;3.78;2.97;;;25.00;61.80;;;;;;5032316;28;20120;-83
2023/08/08 11:48:41;;;;;;;11.02;4.53;;;25.00;61.90;;;;;;5033982;28;20545;-84
2023/08/08 11:51:08;;;;;;;12.32;5.13;;;24.90;62.40;;;;;;5031227;28;20200;-80
2023/08/08 11:53:35;;;;;;;17.88;5.10;;;24.90;62.00;;;;;;5000848;28;20690;-80
2023/08/08 11:56:03;;;;;;;4.85;2.92;;;24.90;62.00;;;;;;5002972;28;20022;-78
2023/08/08 11:58:32;;;;;;;3.63;2.50;;;24.90;62.80;;;;;;5021878;28;20060;-80
2023/08/08 12:00:58;;;;;;;11.88;4.00;;;24.90;62.40;;;;;;4986487;28;20130;-78
2023/08/08 12:03:28;;;;;;;4.13;2.80;;;24.90;62.50;;;;;;5023348;28;20117;-79
2023/08/08 12:05:54;;;;;;;22.55;8.88;;;24.90;62.60;;;;;;5006022;28;20065;-80
2023/08/08 12:08:20;;;;;;;4.28;2.92;;;25.00;62.70;;;;;;5004446;28;20686;-79
2023/08/08 12:10:55;;;;;;;3.20;2.85;;;25.00;62.80;;;;;;5006194;28;20034;-80
2023/08/08 12:13:23;;;;;;;2.90;2.63;;;25.00;62.80;;;;;;5002257;28;20034;-76
2023/08/08 12:15:49;;;;;;;3.05;2.55;;;25.00;63.10;;;;;;5000458;28;20034;-79
2023/08/08 12:18:19;;;;;;;131.45;20.15;;;25.00;63.00;;;;;;5009580;28;20034;-78
2023/08/08 12:20:45;;;;;;;5.80;2.63;;;25.10;63.20;;;;;;5005490;28;20041;-78
2023/08/08 12:23:12;;;;;;;3.05;2.33;;;25.00;62.90;;;;;;5004011;28;20847;-80
2023/08/08 12:25:38;;;;;;;2.70;2.25;;;25.10;62.80;;;;;;4998777;28;20029;-80
2023/08/08 12:28:04;;;;;;;3.17;2.85;;;25.20;62.50;;;;;;5005534;28;20064;-79
2023/08/08 12:30:38;;;;;;;3.45;2.65;;;25.20;62.30;;;;;;5005066;28;20120;-86
2023/08/08 12:33:04;;;;;;;3.40;2.40;;;25.20;62.20;;;;;;5029012;28;20060;-86
2023/08/08 12:35:30;;;;;;;6.20;2.80;;;25.30;62.10;;;;;;5021772;28;20018;-86
2023/08/08 12:37:55;;;;;;;4.13;2.58;;;25.30;62.00;;;;;;5031377;28;20038;-80
2023/08/08 12:40:21;;;;;;;3.17;2.88;;;25.40;61.90;;;;;;5009718;28;20118;-84
2023/08/08 12:42:47;;;;;;;3.67;2.88;;;25.40;61.70;;;;;;5023467;28;20025;-84